createdAt,value
2018-11-21T00:02:07.641Z,54.53
2018-11-21T00:04:37.669Z,57.30
2018-11-21T00:07:07.482Z,58.60
2018-11-21T00:09:37.292Z,59.03
2018-11-21T00:12:07.178Z,54.43
2018-11-21T00:14:38.535Z,56.67
2018-11-21T00:17:08.498Z,58.23
2018-11-21T00:19:39.332Z,54.70
2018-11-21T00:22:09.215Z,52.33
2018-11-21T00:24:39.036Z,56.10
2018-11-21T00:27:11.001Z,53.23
2018-11-21T00:29:40.834Z,55.33
2018-11-21T00:32:26.723Z,55.30
2018-11-21T00:34:56.793Z,52.37
2018-11-21T00:37:27.648Z,53.03
2018-11-21T00:39:57.491Z,52.47
2018-11-21T00:42:29.915Z,56.97
2018-11-21T00:45:00.211Z,52.37
2018-11-21T00:47:30.492Z,53.90
2018-11-21T00:50:00.755Z,53.77
2018-11-21T00:52:30.634Z,54.03
2018-11-21T00:55:00.536Z,54.37
2018-11-21T00:57:30.657Z,55.77
2018-11-21T01:00:00.353Z,54.47
2018-11-21T01:02:30.291Z,54.47
2018-11-21T01:05:00.113Z,53.30
2018-11-21T01:07:30.420Z,55.70
2018-11-21T01:10:02.610Z,52.07
2018-11-21T01:12:32.484Z,52.43
2018-11-21T01:15:02.278Z,53.37
2018-11-21T01:17:32.036Z,53.53
2018-11-21T01:20:01.932Z,53.17
2018-11-21T01:22:31.970Z,52.53
2018-11-21T01:25:01.901Z,54.63
2018-11-21T01:27:31.676Z,51.53
2018-11-21T01:30:01.636Z,54.03
2018-11-21T01:32:31.527Z,54.40
2018-11-21T01:35:01.343Z,53.77
2018-11-21T01:37:31.234Z,54.17
2018-11-21T01:40:03.311Z,52.80
2018-11-21T01:42:36.056Z,56.47
2018-11-21T01:45:06.006Z,50.87
2018-11-21T01:47:36.137Z,53.17
2018-11-21T01:50:06.821Z,50.23
2018-11-21T01:52:36.759Z,53.73
2018-11-21T01:55:07.129Z,53.73
2018-11-21T01:57:37.093Z,55.53
2018-11-21T02:00:09.380Z,55.07
2018-11-21T02:02:39.441Z,53.50
2018-11-21T02:05:09.409Z,53.53
2018-11-21T02:07:39.337Z,55.17
2018-11-21T02:10:09.584Z,51.87
2018-11-21T02:12:39.382Z,53.97
2018-11-21T02:15:09.684Z,51.93
2018-11-21T02:17:39.649Z,53.40
2018-11-21T02:20:12.280Z,51.27
2018-11-21T02:22:42.537Z,52.50
2018-11-21T02:25:12.353Z,54.40
2018-11-21T02:27:42.234Z,51.83
2018-11-21T02:30:12.154Z,51.40
2018-11-21T02:32:42.001Z,51.53
2018-11-21T02:35:11.750Z,53.97
2018-11-21T02:37:41.595Z,51.40
2018-11-21T02:40:11.413Z,53.70
2018-11-21T02:42:41.311Z,55.33
2018-11-21T02:45:11.133Z,55.60
2018-11-21T02:47:41.080Z,48.73
2018-11-21T02:50:13.372Z,51.00
2018-11-21T02:52:43.224Z,50.53
2018-11-21T02:55:13.074Z,54.20
2018-11-21T02:57:42.958Z,51.93
2018-11-21T03:00:19.433Z,52.93
2018-11-21T03:02:49.382Z,49.40
2018-11-21T03:05:19.430Z,50.57
2018-11-21T03:07:53.131Z,50.53
2018-11-21T03:10:23.766Z,53.23
2018-11-21T03:12:53.753Z,50.13
2018-11-21T03:15:23.629Z,50.53
2018-11-21T03:17:53.537Z,53.73
2018-11-21T03:20:26.048Z,51.20
2018-11-21T03:22:55.947Z,53.50
2018-11-21T03:25:25.743Z,55.00
2018-11-21T03:27:55.658Z,51.13
2018-11-21T03:30:25.479Z,51.57
2018-11-21T03:32:55.305Z,56.03
2018-11-21T03:35:25.206Z,51.53
2018-11-21T03:37:55.237Z,56.57
2018-11-21T03:40:25.225Z,60.60
2018-11-21T03:42:55.251Z,55.60
2018-11-21T03:45:25.186Z,56.27
2018-11-21T03:47:54.971Z,54.63
2018-11-21T03:50:24.907Z,60.07
2018-11-21T03:52:54.707Z,56.13
2018-11-21T03:55:24.631Z,57.27
2018-11-21T03:57:54.542Z,57.50
2018-11-21T04:00:24.382Z,57.13
2018-11-21T04:02:54.164Z,57.73
2018-11-21T04:05:24.081Z,57.00
2018-11-21T04:07:54.050Z,55.67
2018-11-21T04:10:24.026Z,61.30
2018-11-21T04:12:53.800Z,60.57
2018-11-21T04:15:23.633Z,55.50
2018-11-21T04:17:53.795Z,58.80
2018-11-21T04:20:23.574Z,55.77
2018-11-21T04:22:53.519Z,58.33
2018-11-21T04:25:23.499Z,56.53
2018-11-21T04:27:53.309Z,59.07
2018-11-21T04:30:23.125Z,58.80
2018-11-21T04:32:53.034Z,58.40
2018-11-21T04:35:23.059Z,58.97
2018-11-21T04:37:53.053Z,58.97
2018-11-21T04:40:22.781Z,55.83
2018-11-21T04:42:52.705Z,58.50
2018-11-21T04:45:22.661Z,58.53
2018-11-21T04:47:52.539Z,61.80
2018-11-21T04:50:22.344Z,61.73
2018-11-21T05:01:28.385Z,60.67
2018-11-21T05:03:58.403Z,62.00
2018-11-21T05:06:28.452Z,63.63
2018-11-21T05:08:59.709Z,63.87
2018-11-21T05:11:29.478Z,63.63
2018-11-21T05:13:59.388Z,59.83
2018-11-21T05:16:29.429Z,60.77
2018-11-21T05:18:59.227Z,61.33
2018-11-21T05:21:29.039Z,62.23
2018-11-21T05:23:59.095Z,62.00
2018-11-21T05:26:28.925Z,58.13
2018-11-21T05:28:58.782Z,61.20
2018-11-21T05:31:28.634Z,60.67
2018-11-21T05:33:58.514Z,60.20
2018-11-21T05:36:28.339Z,65.67
2018-11-21T05:38:58.161Z,58.00
2018-11-21T05:41:28.058Z,62.90
2018-11-21T05:43:58.075Z,64.53
2018-11-21T05:46:28.029Z,59.10
2018-11-21T05:48:57.795Z,61.00
2018-11-21T05:51:27.711Z,61.17
2018-11-21T05:53:57.821Z,61.53
2018-11-21T05:56:27.660Z,61.47
2018-11-21T05:58:57.530Z,63.07
2018-11-21T06:01:27.403Z,64.20
2018-11-21T06:03:57.422Z,68.17
2018-11-21T06:06:27.339Z,63.13
2018-11-21T06:08:57.367Z,63.43
2018-11-21T06:11:27.228Z,66.87
2018-11-21T06:13:57.267Z,65.83
2018-11-21T06:16:27.188Z,63.77
2018-11-21T06:18:58.925Z,65.83
2018-11-21T06:21:28.760Z,63.83
2018-11-21T06:23:58.684Z,62.67
2018-11-21T06:26:28.573Z,64.80
2018-11-21T06:28:59.168Z,59.83
2018-11-21T06:31:29.813Z,65.77
2018-11-21T06:33:59.646Z,65.13
2018-11-21T06:36:29.502Z,67.13
2018-11-21T06:38:59.598Z,61.47
2018-11-21T06:41:29.586Z,62.27
2018-11-21T06:43:59.515Z,62.60
2018-11-21T06:46:29.548Z,63.33
2018-11-21T06:48:59.436Z,60.93
2018-11-21T06:51:31.870Z,60.50
2018-11-21T06:53:59.312Z,58.77
2018-11-21T06:56:29.289Z,60.90
2018-11-21T06:58:59.307Z,57.43
2018-11-21T07:01:29.242Z,57.90
2018-11-21T07:03:59.147Z,58.30
2018-11-21T07:06:28.945Z,57.53
2018-11-21T07:08:58.871Z,61.47
2018-11-21T07:11:28.860Z,59.87
2018-11-21T07:13:58.704Z,56.57
2018-11-21T07:16:28.604Z,57.93
2018-11-21T07:18:58.365Z,61.57
2018-11-21T07:21:28.241Z,58.53
2018-11-21T07:23:58.514Z,58.33
2018-11-21T07:26:28.419Z,57.33
2018-11-21T07:28:58.259Z,56.77
2018-11-21T07:31:28.239Z,62.33
2018-11-21T07:33:58.115Z,61.27
2018-11-21T07:36:28.191Z,56.07
2018-11-21T07:38:58.085Z,56.90
2018-11-21T07:41:28.737Z,57.83
2018-11-21T07:43:58.499Z,56.17
2018-11-21T07:46:28.443Z,58.33
2018-11-21T07:48:58.524Z,59.97
2018-11-21T07:51:28.367Z,58.77
2018-11-21T07:53:58.277Z,58.67
2018-11-21T07:57:26.927Z,57.57
2018-11-21T08:00:51.081Z,57.20
2018-11-21T08:03:21.470Z,58.17
2018-11-21T08:05:56.737Z,57.67
2018-11-21T08:08:46.595Z,56.30
2018-11-21T08:11:37.984Z,58.23
2018-11-21T08:14:41.765Z,58.53
2018-11-21T08:17:28.839Z,61.17
2018-11-21T08:20:12.177Z,61.70
2018-11-21T08:22:59.480Z,61.33
2018-11-21T08:25:48.439Z,58.73
2018-11-21T08:28:23.183Z,58.40
2018-11-21T08:30:53.097Z,60.47
2018-11-21T08:33:22.913Z,61.70
2018-11-21T08:35:52.766Z,60.87
2018-11-21T08:38:22.458Z,60.73
2018-11-21T08:40:52.449Z,59.47
2018-11-21T08:43:22.314Z,61.40
2018-11-21T08:45:52.479Z,62.00
2018-11-21T08:48:22.703Z,57.37
2018-11-21T08:50:52.739Z,63.73
2018-11-21T08:53:22.533Z,63.23
2018-11-21T08:55:52.338Z,63.23
2018-11-21T08:58:22.393Z,66.97
2018-11-21T09:00:52.374Z,67.73
2018-11-21T09:03:22.122Z,62.13
2018-11-21T09:05:52.013Z,64.43
2018-11-21T09:08:22.159Z,71.70
2018-11-21T09:10:52.756Z,71.03
2018-11-21T09:13:22.273Z,66.47
2018-11-21T09:15:52.079Z,69.47
2018-11-21T09:18:21.911Z,64.43
2018-11-21T09:20:51.700Z,70.37
2018-11-21T09:23:21.521Z,63.73
2018-11-21T09:25:51.897Z,67.73
2018-11-21T09:28:22.509Z,68.67
2018-11-21T09:30:52.493Z,64.00
2018-11-21T09:33:22.306Z,68.63
2018-11-21T09:35:52.121Z,71.23
2018-11-21T09:38:22.511Z,64.07
2018-11-21T09:40:52.701Z,66.40
2018-11-21T09:43:22.699Z,63.77
2018-11-21T09:45:52.494Z,62.37
2018-11-21T09:48:22.443Z,64.97
2018-11-21T09:50:52.269Z,63.53
2018-11-21T09:53:22.144Z,64.00
2018-11-21T09:55:52.079Z,62.00
2018-11-21T09:58:21.984Z,63.87
2018-11-21T10:01:46.479Z,63.03
2018-11-21T10:04:16.390Z,63.60
2018-11-21T10:06:47.217Z,63.33
2018-11-21T10:09:19.717Z,61.07
2018-11-21T10:11:51.764Z,62.53
2018-11-21T10:14:21.879Z,62.70
2018-11-21T10:16:52.066Z,63.10
2018-11-21T10:19:22.110Z,64.60
2018-11-21T10:21:52.133Z,63.77
2018-11-21T10:24:21.980Z,59.73
2018-11-21T10:26:52.711Z,66.77
2018-11-21T10:29:22.492Z,61.13
2018-11-21T10:31:53.355Z,61.87
2018-11-21T10:34:23.252Z,64.90
2018-11-21T10:36:53.065Z,60.03
2018-11-21T10:39:22.997Z,61.40
2018-11-21T10:41:52.892Z,63.53
2018-11-21T10:44:22.802Z,59.40
2018-11-21T10:46:52.763Z,60.40
2018-11-21T10:49:22.530Z,62.03
2018-11-21T10:51:52.346Z,61.63
2018-11-21T10:54:22.276Z,62.13
2018-11-21T10:56:52.134Z,58.70
2018-11-21T10:59:21.981Z,56.10
2018-11-21T11:02:09.311Z,59.80
2018-11-21T11:04:47.011Z,64.20
2018-11-21T11:07:54.203Z,61.17
2018-11-21T11:10:46.012Z,57.73
2018-11-21T11:13:35.448Z,55.33
2018-11-21T11:16:23.779Z,59.50
2018-11-21T11:19:13.944Z,63.40
2018-11-21T11:22:01.124Z,62.30
2018-11-21T11:24:55.702Z,59.37
2018-11-21T11:27:43.602Z,58.27
2018-11-21T11:30:33.307Z,56.07
2018-11-21T11:33:29.956Z,58.30
2018-11-21T11:36:15.792Z,56.47
2018-11-21T11:39:03.668Z,57.13
2018-11-21T11:41:53.032Z,59.03
2018-11-21T11:44:44.792Z,57.83
2018-11-21T11:47:39.491Z,57.40
2018-11-21T11:50:34.878Z,55.77
2018-11-21T11:53:29.723Z,56.13
2018-11-21T11:56:15.424Z,59.50
2018-11-21T11:59:13.693Z,56.03
2018-11-21T12:02:05.531Z,57.03
2018-11-21T12:04:50.935Z,54.47
2018-11-21T12:07:50.802Z,60.90
2018-11-21T12:10:38.396Z,54.70
2018-11-21T12:13:26.285Z,56.07
2018-11-21T12:16:20.820Z,54.73
2018-11-21T12:19:08.100Z,57.60
2018-11-21T12:21:55.715Z,56.80
2018-11-21T12:24:46.333Z,58.67
2018-11-21T12:27:37.670Z,54.17
2018-11-21T12:30:29.401Z,55.47
2018-11-21T12:33:17.007Z,58.03
2018-11-21T12:36:04.480Z,55.27
2018-11-21T12:38:57.159Z,59.27
2018-11-21T12:41:52.285Z,55.73
2018-11-21T12:44:38.328Z,57.37
2018-11-21T12:47:43.130Z,55.27
2018-11-21T12:50:34.155Z,58.83
2018-11-21T12:53:23.405Z,55.77
2018-11-21T12:56:30.506Z,57.17
2018-11-21T12:59:11.556Z,58.57
2018-11-21T13:01:56.258Z,58.83
2018-11-21T13:04:36.374Z,56.53
2018-11-21T13:07:23.720Z,57.93
2018-11-21T13:10:24.237Z,57.13
2018-11-21T13:13:15.703Z,60.33
2018-11-21T13:16:04.567Z,59.43
2018-11-21T13:19:02.283Z,56.87
2018-11-21T13:21:54.085Z,57.73
2018-11-21T13:24:42.373Z,61.43
2018-11-21T13:27:33.872Z,57.63
2018-11-21T13:30:22.826Z,59.10
2018-11-21T13:33:11.670Z,61.97
2018-11-21T13:36:03.051Z,60.67
2018-11-21T13:38:54.842Z,62.57
2018-11-21T13:41:42.348Z,56.23
2018-11-21T13:44:29.867Z,59.50
2018-11-21T13:47:28.659Z,59.27
2018-11-21T13:50:20.388Z,58.90
2018-11-21T13:53:12.096Z,54.10
2018-11-21T13:55:42.017Z,57.13
2018-11-21T13:58:11.782Z,57.43
2018-11-21T14:00:41.891Z,59.33
2018-11-21T14:03:11.848Z,59.80
2018-11-21T14:05:43.195Z,58.23
2018-11-21T14:08:13.105Z,60.23
2018-11-21T14:10:42.881Z,58.30
2018-11-21T14:13:15.195Z,56.20
2018-11-21T14:15:45.324Z,57.53
2018-11-21T14:18:15.179Z,58.47
2018-11-21T14:20:47.309Z,54.83
2018-11-21T14:23:17.719Z,59.20
2018-11-21T14:25:47.547Z,56.47
2018-11-21T14:28:17.434Z,58.47
2018-11-21T14:30:47.262Z,57.07
2018-11-21T14:33:17.182Z,54.90
2018-11-21T14:35:52.296Z,58.17
2018-11-21T14:38:21.833Z,57.57
2018-11-21T14:40:51.595Z,58.63
2018-11-21T14:43:21.513Z,56.63
2018-11-21T14:45:51.253Z,55.47
2018-11-21T14:48:21.047Z,57.87
2018-11-21T14:50:51.905Z,55.77
2018-11-21T14:53:21.798Z,55.93
2018-11-21T14:55:51.623Z,58.20
2018-11-21T14:58:21.434Z,57.20
2018-11-21T15:00:51.252Z,58.37
2018-11-21T15:03:21.248Z,56.83
2018-11-21T15:05:51.043Z,59.63
2018-11-21T15:08:21.003Z,56.77
2018-11-21T15:10:50.906Z,59.83
2018-11-21T15:13:20.808Z,55.17
2018-11-21T15:15:50.740Z,57.10
2018-11-21T15:18:20.621Z,56.17
2018-11-21T15:20:50.842Z,60.73
2018-11-21T15:23:20.961Z,56.90
2018-11-21T15:25:50.888Z,56.80
2018-11-21T15:28:20.691Z,58.27
2018-11-21T15:30:50.785Z,56.73
2018-11-21T15:33:21.092Z,61.13
2018-11-21T15:35:50.979Z,57.30
2018-11-21T15:38:20.988Z,60.53
2018-11-21T15:40:51.665Z,58.97
2018-11-21T15:43:22.645Z,54.43
2018-11-21T15:45:52.585Z,57.53
2018-11-21T15:48:22.376Z,58.80
2018-11-21T15:50:52.319Z,58.60
2018-11-21T15:53:22.233Z,57.40
2018-11-21T15:55:52.120Z,58.90
2018-11-21T15:58:22.153Z,61.00
